sensor_id;sensor_type;location;lat;lon;timestamp;temperature;humidity
49549;DHT22;35450;44.518;7.466;2022-10-16T00:01:14;17.40;99.40
49549;DHT22;35450;44.518;7.466;2022-10-16T00:04:18;17.40;99.50
49549;DHT22;35450;44.518;7.466;2022-10-16T00:07:22;17.30;99.60
49549;DHT22;35450;44.518;7.466;2022-10-16T00:10:26;17.40;99.50
49549;DHT22;35450;44.518;7.466;2022-10-16T00:13:30;17.30;99.10
49549;DHT22;35450;44.518;7.466;2022-10-16T00:16:35;17.40;99.00
49549;DHT22;35450;44.518;7.466;2022-10-16T00:19:39;17.40;99.00
49549;DHT22;35450;44.518;7.466;2022-10-16T00:22:43;17.40;99.10
49549;DHT22;35450;44.518;7.466;2022-10-16T00:25:57;17.40;99.20
49549;DHT22;35450;44.518;7.466;2022-10-16T00:29:03;17.40;99.30
49549;DHT22;35450;44.518;7.466;2022-10-16T00:32:07;17.40;99.70
49549;DHT22;35450;44.518;7.466;2022-10-16T00:35:11;17.40;99.60
49549;DHT22;35450;44.518;7.466;2022-10-16T00:38:15;17.40;99.60
49549;DHT22;35450;44.518;7.466;2022-10-16T00:41:20;17.30;99.90
49549;DHT22;35450;44.518;7.466;2022-10-16T00:47:47;17.30;99.90
49549;DHT22;35450;44.518;7.466;2022-10-16T00:50:56;17.30;99.90
49549;DHT22;35450;44.518;7.466;2022-10-16T00:54:03;17.20;99.90
49549;DHT22;35450;44.518;7.466;2022-10-16T00:57:08;17.10;99.90
49549;DHT22;35450;44.518;7.466;2022-10-16T01:00:15;17.00;99.90
49549;DHT22;35450;44.518;7.466;2022-10-16T01:03:25;17.10;99.90
49549;DHT22;35450;44.518;7.466;2022-10-16T01:13:12;17.00;99.90
49549;DHT22;35450;44.518;7.466;2022-10-16T01:16:32;17.10;99.90
49549;DHT22;35450;44.518;7.466;2022-10-16T01:20:06;17.10;99.90
49549;DHT22;35450;44.518;7.466;2022-10-16T01:24:08;17.10;99.90
49549;DHT22;35450;44.518;7.466;2022-10-16T01:30:25;17.20;99.90
49549;DHT22;35450;44.518;7.466;2022-10-16T01:33:40;17.10;99.90
49549;DHT22;35450;44.518;7.466;2022-10-16T01:36:52;17.10;99.90
49549;DHT22;35450;44.518;7.466;2022-10-16T01:39:58;17.20;99.90
49549;DHT22;35450;44.518;7.466;2022-10-16T01:43:28;17.10;99.90
49549;DHT22;35450;44.518;7.466;2022-10-16T01:46:36;17.10;99.90
49549;DHT22;35450;44.518;7.466;2022-10-16T01:49:42;17.20;99.90
49549;DHT22;35450;44.518;7.466;2022-10-16T01:52:50;17.10;99.90
49549;DHT22;35450;44.518;7.466;2022-10-16T01:55:55;17.10;99.90
49549;DHT22;35450;44.518;7.466;2022-10-16T01:59:15;17.10;99.90
49549;DHT22;35450;44.518;7.466;2022-10-16T02:02:20;17.10;99.90
49549;DHT22;35450;44.518;7.466;2022-10-16T02:05:55;17.20;99.90
49549;DHT22;35450;44.518;7.466;2022-10-16T02:09:00;17.20;99.90
49549;DHT22;35450;44.518;7.466;2022-10-16T02:12:41;17.10;99.90
49549;DHT22;35450;44.518;7.466;2022-10-16T02:15:46;17.10;99.90
49549;DHT22;35450;44.518;7.466;2022-10-16T02:18:51;17.10;99.90
49549;DHT22;35450;44.518;7.466;2022-10-16T02:21:58;17.00;99.90
49549;DHT22;35450;44.518;7.466;2022-10-16T02:25:08;17.00;99.90
49549;DHT22;35450;44.518;7.466;2022-10-16T02:28:34;17.00;99.90
49549;DHT22;35450;44.518;7.466;2022-10-16T02:31:44;17.00;99.90
49549;DHT22;35450;44.518;7.466;2022-10-16T02:34:51;17.00;99.90
49549;DHT22;35450;44.518;7.466;2022-10-16T02:37:56;17.10;99.90
49549;DHT22;35450;44.518;7.466;2022-10-16T02:41:00;17.10;99.90
49549;DHT22;35450;44.518;7.466;2022-10-16T02:44:04;17.20;99.90
49549;DHT22;35450;44.518;7.466;2022-10-16T02:47:08;17.10;99.90
49549;DHT22;35450;44.518;7.466;2022-10-16T02:50:12;17.10;99.90
49549;DHT22;35450;44.518;7.466;2022-10-16T02:53:16;17.10;99.90
49549;DHT22;35450;44.518;7.466;2022-10-16T02:56:20;16.90;99.90
49549;DHT22;35450;44.518;7.466;2022-10-16T02:59:24;16.90;99.90
49549;DHT22;35450;44.518;7.466;2022-10-16T03:02:28;16.80;99.90
49549;DHT22;35450;44.518;7.466;2022-10-16T03:05:32;16.80;99.90
49549;DHT22;35450;44.518;7.466;2022-10-16T03:08:36;16.80;99.90
49549;DHT22;35450;44.518;7.466;2022-10-16T03:11:40;16.80;99.90
49549;DHT22;35450;44.518;7.466;2022-10-16T03:14:44;16.90;99.90
49549;DHT22;35450;44.518;7.466;2022-10-16T03:17:48;17.00;99.90
49549;DHT22;35450;44.518;7.466;2022-10-16T03:20:52;17.10;99.90
49549;DHT22;35450;44.518;7.466;2022-10-16T03:23:56;17.10;99.90
49549;DHT22;35450;44.518;7.466;2022-10-16T03:27:00;17.10;99.90
49549;DHT22;35450;44.518;7.466;2022-10-16T03:30:05;17.10;99.90
49549;DHT22;35450;44.518;7.466;2022-10-16T03:33:09;17.10;99.90
49549;DHT22;35450;44.518;7.466;2022-10-16T03:36:13;17.10;99.90
49549;DHT22;35450;44.518;7.466;2022-10-16T03:39:17;17.00;99.90
49549;DHT22;35450;44.518;7.466;2022-10-16T03:42:21;17.00;99.90
49549;DHT22;35450;44.518;7.466;2022-10-16T03:45:25;17.00;99.90
49549;DHT22;35450;44.518;7.466;2022-10-16T03:48:31;17.00;99.90
49549;DHT22;35450;44.518;7.466;2022-10-16T03:51:35;17.00;99.90
49549;DHT22;35450;44.518;7.466;2022-10-16T03:54:39;17.00;99.90
49549;DHT22;35450;44.518;7.466;2022-10-16T03:57:43;16.90;99.90
49549;DHT22;35450;44.518;7.466;2022-10-16T04:00:47;16.90;99.90
49549;DHT22;35450;44.518;7.466;2022-10-16T04:03:52;16.90;99.90
49549;DHT22;35450;44.518;7.466;2022-10-16T04:06:56;16.90;99.90
49549;DHT22;35450;44.518;7.466;2022-10-16T04:09:59;16.90;99.80
49549;DHT22;35450;44.518;7.466;2022-10-16T04:13:03;17.00;99.70
49549;DHT22;35450;44.518;7.466;2022-10-16T04:16:07;16.90;99.60
49549;DHT22;35450;44.518;7.466;2022-10-16T04:19:11;16.90;99.80
49549;DHT22;35450;44.518;7.466;2022-10-16T04:22:16;16.80;99.80
49549;DHT22;35450;44.518;7.466;2022-10-16T04:25:19;16.80;99.80
49549;DHT22;35450;44.518;7.466;2022-10-16T04:28:23;16.80;99.90
49549;DHT22;35450;44.518;7.466;2022-10-16T04:31:27;16.80;99.90
49549;DHT22;35450;44.518;7.466;2022-10-16T04:34:31;16.70;99.90
49549;DHT22;35450;44.518;7.466;2022-10-16T04:37:35;16.70;99.90
49549;DHT22;35450;44.518;7.466;2022-10-16T04:40:42;16.80;99.90
49549;DHT22;35450;44.518;7.466;2022-10-16T04:43:46;16.80;99.90
49549;DHT22;35450;44.518;7.466;2022-10-16T04:46:51;16.80;99.90
49549;DHT22;35450;44.518;7.466;2022-10-16T04:49:55;16.90;99.90
49549;DHT22;35450;44.518;7.466;2022-10-16T04:53:00;16.80;99.90
49549;DHT22;35450;44.518;7.466;2022-10-16T04:56:04;16.70;99.90
49549;DHT22;35450;44.518;7.466;2022-10-16T04:59:09;16.70;99.90
49549;DHT22;35450;44.518;7.466;2022-10-16T05:02:13;16.70;99.90
49549;DHT22;35450;44.518;7.466;2022-10-16T05:05:17;16.60;99.90
49549;DHT22;35450;44.518;7.466;2022-10-16T05:08:23;16.60;99.90
49549;DHT22;35450;44.518;7.466;2022-10-16T05:11:26;16.70;99.90
49549;DHT22;35450;44.518;7.466;2022-10-16T05:14:30;16.80;99.20
49549;DHT22;35450;44.518;7.466;2022-10-16T05:17:34;16.70;99.10
49549;DHT22;35450;44.518;7.466;2022-10-16T05:20:38;16.70;99.20
49549;DHT22;35450;44.518;7.466;2022-10-16T05:23:42;16.70;99.60
49549;DHT22;35450;44.518;7.466;2022-10-16T05:26:46;16.60;99.60
49549;DHT22;35450;44.518;7.466;2022-10-16T05:29:50;16.70;99.60
49549;DHT22;35450;44.518;7.466;2022-10-16T05:32:54;16.60;99.60
49549;DHT22;35450;44.518;7.466;2022-10-16T05:36:03;16.70;99.60
49549;DHT22;35450;44.518;7.466;2022-10-16T05:39:07;16.60;99.90
49549;DHT22;35450;44.518;7.466;2022-10-16T05:42:11;16.60;99.90
49549;DHT22;35450;44.518;7.466;2022-10-16T05:45:15;16.70;99.90
49549;DHT22;35450;44.518;7.466;2022-10-16T05:48:19;16.70;99.90
49549;DHT22;35450;44.518;7.466;2022-10-16T05:51:23;16.70;99.90
49549;DHT22;35450;44.518;7.466;2022-10-16T05:54:27;16.60;99.90
49549;DHT22;35450;44.518;7.466;2022-10-16T05:57:31;16.50;99.90
49549;DHT22;35450;44.518;7.466;2022-10-16T06:00:35;16.50;99.90
49549;DHT22;35450;44.518;7.466;2022-10-16T06:03:40;16.50;99.90
49549;DHT22;35450;44.518;7.466;2022-10-16T06:06:44;16.50;99.90
49549;DHT22;35450;44.518;7.466;2022-10-16T06:09:52;16.60;99.90
49549;DHT22;35450;44.518;7.466;2022-10-16T06:12:56;16.70;99.90
49549;DHT22;35450;44.518;7.466;2022-10-16T06:16:01;16.60;99.90
49549;DHT22;35450;44.518;7.466;2022-10-16T06:19:05;16.60;99.90
49549;DHT22;35450;44.518;7.466;2022-10-16T06:22:11;16.50;99.90
49549;DHT22;35450;44.518;7.466;2022-10-16T06:25:16;16.50;99.90
49549;DHT22;35450;44.518;7.466;2022-10-16T06:28:20;16.50;99.90
49549;DHT22;35450;44.518;7.466;2022-10-16T06:31:24;16.50;99.90
49549;DHT22;35450;44.518;7.466;2022-10-16T06:34:33;16.50;99.90
49549;DHT22;35450;44.518;7.466;2022-10-16T06:37:37;16.50;99.90
49549;DHT22;35450;44.518;7.466;2022-10-16T06:40:41;16.50;99.90
49549;DHT22;35450;44.518;7.466;2022-10-16T06:43:45;16.50;99.90
49549;DHT22;35450;44.518;7.466;2022-10-16T06:46:49;16.40;99.90
49549;DHT22;35450;44.518;7.466;2022-10-16T06:49:53;16.50;99.90
49549;DHT22;35450;44.518;7.466;2022-10-16T06:52:57;16.40;99.90
49549;DHT22;35450;44.518;7.466;2022-10-16T06:56:13;16.50;99.90
49549;DHT22;35450;44.518;7.466;2022-10-16T06:59:18;16.60;99.90
49549;DHT22;35450;44.518;7.466;2022-10-16T07:02:23;16.60;99.90
49549;DHT22;35450;44.518;7.466;2022-10-16T07:05:27;16.70;99.90
49549;DHT22;35450;44.518;7.466;2022-10-16T07:08:35;16.60;99.90
49549;DHT22;35450;44.518;7.466;2022-10-16T07:11:40;16.60;99.90
49549;DHT22;35450;44.518;7.466;2022-10-16T07:14:44;16.60;99.90
49549;DHT22;35450;44.518;7.466;2022-10-16T07:17:48;16.60;99.90
49549;DHT22;35450;44.518;7.466;2022-10-16T07:20:52;16.70;99.90
49549;DHT22;35450;44.518;7.466;2022-10-16T07:23:59;16.80;99.90
49549;DHT22;35450;44.518;7.466;2022-10-16T07:27:04;16.80;99.90
49549;DHT22;35450;44.518;7.466;2022-10-16T07:30:09;16.80;99.90
49549;DHT22;35450;44.518;7.466;2022-10-16T07:33:13;16.90;99.90
49549;DHT22;35450;44.518;7.466;2022-10-16T07:36:19;16.90;99.90
49549;DHT22;35450;44.518;7.466;2022-10-16T07:39:23;16.90;99.90
49549;DHT22;35450;44.518;7.466;2022-10-16T07:42:27;17.00;99.90
49549;DHT22;35450;44.518;7.466;2022-10-16T07:45:32;17.10;99.90
49549;DHT22;35450;44.518;7.466;2022-10-16T07:48:36;17.10;99.90
49549;DHT22;35450;44.518;7.466;2022-10-16T07:51:40;17.20;99.90
49549;DHT22;35450;44.518;7.466;2022-10-16T07:54:44;17.20;99.90
49549;DHT22;35450;44.518;7.466;2022-10-16T07:57:48;17.30;99.90
49549;DHT22;35450;44.518;7.466;2022-10-16T08:00:51;17.40;99.90
49549;DHT22;35450;44.518;7.466;2022-10-16T08:03:56;17.40;98.90
49549;DHT22;35450;44.518;7.466;2022-10-16T08:06:59;17.50;99.40
49549;DHT22;35450;44.518;7.466;2022-10-16T08:10:04;17.60;98.70
49549;DHT22;35450;44.518;7.466;2022-10-16T08:13:08;17.60;98.20
49549;DHT22;35450;44.518;7.466;2022-10-16T08:16:12;17.70;98.00
49549;DHT22;35450;44.518;7.466;2022-10-16T08:19:16;17.80;97.80
49549;DHT22;35450;44.518;7.466;2022-10-16T08:22:20;17.80;97.50
49549;DHT22;35450;44.518;7.466;2022-10-16T08:25:24;17.80;97.20
49549;DHT22;35450;44.518;7.466;2022-10-16T08:28:28;17.80;97.30
49549;DHT22;35450;44.518;7.466;2022-10-16T08:31:32;17.90;97.00
49549;DHT22;35450;44.518;7.466;2022-10-16T08:34:36;17.90;96.80
49549;DHT22;35450;44.518;7.466;2022-10-16T08:37:41;18.00;96.80
49549;DHT22;35450;44.518;7.466;2022-10-16T08:40:45;18.10;96.70
49549;DHT22;35450;44.518;7.466;2022-10-16T08:47:22;18.10;96.20
49549;DHT22;35450;44.518;7.466;2022-10-16T08:50:30;18.20;96.00
49549;DHT22;35450;44.518;7.466;2022-10-16T08:53:49;18.20;96.20
49549;DHT22;35450;44.518;7.466;2022-10-16T08:56:55;18.30;96.20
49549;DHT22;35450;44.518;7.466;2022-10-16T09:00:08;18.30;96.20
49549;DHT22;35450;44.518;7.466;2022-10-16T09:03:47;18.40;96.20
49549;DHT22;35450;44.518;7.466;2022-10-16T09:06:59;18.40;96.00
49549;DHT22;35450;44.518;7.466;2022-10-16T09:20:57;18.40;95.90
49549;DHT22;35450;44.518;7.466;2022-10-16T09:27:16;18.40;96.00
49549;DHT22;35450;44.518;7.466;2022-10-16T09:30:22;18.40;96.10
49549;DHT22;35450;44.518;7.466;2022-10-16T09:33:36;18.50;96.00
49549;DHT22;35450;44.518;7.466;2022-10-16T09:36:44;18.50;95.80
49549;DHT22;35450;44.518;7.466;2022-10-16T09:39:53;18.50;96.00
49549;DHT22;35450;44.518;7.466;2022-10-16T09:49:56;18.60;95.30
49549;DHT22;35450;44.518;7.466;2022-10-16T09:53:12;18.70;95.20
49549;DHT22;35450;44.518;7.466;2022-10-16T09:56:37;18.70;95.30
49549;DHT22;35450;44.518;7.466;2022-10-16T09:59:56;18.60;95.20
49549;DHT22;35450;44.518;7.466;2022-10-16T10:03:00;18.70;95.20
49549;DHT22;35450;44.518;7.466;2022-10-16T10:06:25;18.70;95.80
49549;DHT22;35450;44.518;7.466;2022-10-16T10:09:38;18.70;95.70
49549;DHT22;35450;44.518;7.466;2022-10-16T10:12:42;18.80;95.70
49549;DHT22;35450;44.518;7.466;2022-10-16T10:15:50;18.90;95.90
49549;DHT22;35450;44.518;7.466;2022-10-16T10:18:58;19.00;95.50
49549;DHT22;35450;44.518;7.466;2022-10-16T10:31:45;19.10;95.50
49549;DHT22;35450;44.518;7.466;2022-10-16T10:35:19;19.10;95.40
49549;DHT22;35450;44.518;7.466;2022-10-16T10:45:28;19.30;95.60
49549;DHT22;35450;44.518;7.466;2022-10-16T11:01:37;19.30;96.00
49549;DHT22;35450;44.518;7.466;2022-10-16T11:04:59;19.30;95.60
49549;DHT22;35450;44.518;7.466;2022-10-16T11:08:20;19.20;95.70
49549;DHT22;35450;44.518;7.466;2022-10-16T11:11:41;19.30;95.70
49549;DHT22;35450;44.518;7.466;2022-10-16T11:14:58;19.30;95.50
49549;DHT22;35450;44.518;7.466;2022-10-16T11:18:11;19.40;95.30
49549;DHT22;35450;44.518;7.466;2022-10-16T11:21:21;19.40;95.40
49549;DHT22;35450;44.518;7.466;2022-10-16T11:24:48;19.40;95.80
49549;DHT22;35450;44.518;7.466;2022-10-16T11:28:13;19.50;95.50
49549;DHT22;35450;44.518;7.466;2022-10-16T11:31:38;19.60;95.10
49549;DHT22;35450;44.518;7.466;2022-10-16T11:34:51;19.70;95.20
49549;DHT22;35450;44.518;7.466;2022-10-16T11:37:58;19.70;95.10
49549;DHT22;35450;44.518;7.466;2022-10-16T11:47:54;19.60;95.70
49549;DHT22;35450;44.518;7.466;2022-10-16T11:51:11;19.60;95.70
49549;DHT22;35450;44.518;7.466;2022-10-16T11:54:37;19.60;95.50
49549;DHT22;35450;44.518;7.466;2022-10-16T11:57:54;19.60;95.50
49549;DHT22;35450;44.518;7.466;2022-10-16T12:01:30;19.60;95.40
49549;DHT22;35450;44.518;7.466;2022-10-16T12:04:45;19.70;95.70
49549;DHT22;35450;44.518;7.466;2022-10-16T12:08:04;19.60;95.40
49549;DHT22;35450;44.518;7.466;2022-10-16T12:14:33;19.50;96.40
49549;DHT22;35450;44.518;7.466;2022-10-16T12:17:40;19.50;96.30
49549;DHT22;35450;44.518;7.466;2022-10-16T12:20:57;19.50;96.10
49549;DHT22;35450;44.518;7.466;2022-10-16T12:24:04;19.50;96.50
49549;DHT22;35450;44.518;7.466;2022-10-16T12:27:28;19.40;96.50
49549;DHT22;35450;44.518;7.466;2022-10-16T12:30:35;19.50;96.40
49549;DHT22;35450;44.518;7.466;2022-10-16T12:33:42;19.50;96.20
49549;DHT22;35450;44.518;7.466;2022-10-16T12:36:46;19.50;95.90
49549;DHT22;35450;44.518;7.466;2022-10-16T12:39:51;19.50;95.80
49549;DHT22;35450;44.518;7.466;2022-10-16T12:42:56;19.50;96.10
49549;DHT22;35450;44.518;7.466;2022-10-16T12:49:38;19.40;95.90
49549;DHT22;35450;44.518;7.466;2022-10-16T12:52:51;19.50;96.20
49549;DHT22;35450;44.518;7.466;2022-10-16T12:59:18;19.30;96.40
49549;DHT22;35450;44.518;7.466;2022-10-16T13:09:34;19.20;96.70
49549;DHT22;35450;44.518;7.466;2022-10-16T13:23:33;19.30;95.60
49549;DHT22;35450;44.518;7.466;2022-10-16T13:30:16;19.40;95.30
49549;DHT22;35450;44.518;7.466;2022-10-16T13:33:36;19.50;95.50
49549;DHT22;35450;44.518;7.466;2022-10-16T13:36:50;19.50;94.70
49549;DHT22;35450;44.518;7.466;2022-10-16T13:40:33;19.50;94.90
49549;DHT22;35450;44.518;7.466;2022-10-16T13:43:52;19.50;94.70
49549;DHT22;35450;44.518;7.466;2022-10-16T13:47:00;19.50;94.60
49549;DHT22;35450;44.518;7.466;2022-10-16T13:50:14;19.50;95.00
49549;DHT22;35450;44.518;7.466;2022-10-16T13:53:18;19.50;94.40
49549;DHT22;35450;44.518;7.466;2022-10-16T13:56:25;19.50;94.90
49549;DHT22;35450;44.518;7.466;2022-10-16T13:59:34;19.60;94.90
49549;DHT22;35450;44.518;7.466;2022-10-16T14:02:40;19.50;95.10
49549;DHT22;35450;44.518;7.466;2022-10-16T14:05:50;19.50;95.00
49549;DHT22;35450;44.518;7.466;2022-10-16T14:12:08;19.40;95.00
49549;DHT22;35450;44.518;7.466;2022-10-16T14:15:18;19.50;95.20
49549;DHT22;35450;44.518;7.466;2022-10-16T14:18:24;19.40;95.10
49549;DHT22;35450;44.518;7.466;2022-10-16T14:21:29;19.40;95.00
49549;DHT22;35450;44.518;7.466;2022-10-16T14:24:34;19.40;95.20
49549;DHT22;35450;44.518;7.466;2022-10-16T14:27:38;19.30;94.80
49549;DHT22;35450;44.518;7.466;2022-10-16T14:30:59;19.30;95.20
49549;DHT22;35450;44.518;7.466;2022-10-16T14:34:04;19.30;95.20
49549;DHT22;35450;44.518;7.466;2022-10-16T14:37:27;19.20;95.70
49549;DHT22;35450;44.518;7.466;2022-10-16T14:40:34;19.20;96.00
49549;DHT22;35450;44.518;7.466;2022-10-16T14:43:41;19.30;95.90
49549;DHT22;35450;44.518;7.466;2022-10-16T14:46:45;19.30;96.00
49549;DHT22;35450;44.518;7.466;2022-10-16T14:49:51;19.30;95.90
49549;DHT22;35450;44.518;7.466;2022-10-16T14:52:58;19.30;95.90
49549;DHT22;35450;44.518;7.466;2022-10-16T14:56:09;19.30;95.80
49549;DHT22;35450;44.518;7.466;2022-10-16T15:02:35;19.30;96.00
49549;DHT22;35450;44.518;7.466;2022-10-16T15:05:42;19.20;96.20
49549;DHT22;35450;44.518;7.466;2022-10-16T15:08:47;19.20;96.40
49549;DHT22;35450;44.518;7.466;2022-10-16T15:11:51;19.10;96.30
49549;DHT22;35450;44.518;7.466;2022-10-16T15:14:55;19.10;96.20
49549;DHT22;35450;44.518;7.466;2022-10-16T15:18:00;19.20;96.20
49549;DHT22;35450;44.518;7.466;2022-10-16T15:21:05;19.20;96.10
49549;DHT22;35450;44.518;7.466;2022-10-16T15:24:12;19.20;96.30
49549;DHT22;35450;44.518;7.466;2022-10-16T15:27:16;19.20;96.10
49549;DHT22;35450;44.518;7.466;2022-10-16T15:30:20;19.20;96.10
49549;DHT22;35450;44.518;7.466;2022-10-16T15:33:26;19.20;96.00
49549;DHT22;35450;44.518;7.466;2022-10-16T15:36:34;19.20;96.30
49549;DHT22;35450;44.518;7.466;2022-10-16T15:39:40;19.20;96.30
49549;DHT22;35450;44.518;7.466;2022-10-16T15:42:44;19.10;96.20
49549;DHT22;35450;44.518;7.466;2022-10-16T15:46:03;19.10;96.40
49549;DHT22;35450;44.518;7.466;2022-10-16T15:49:08;19.20;96.50
49549;DHT22;35450;44.518;7.466;2022-10-16T15:52:13;19.20;97.00
49549;DHT22;35450;44.518;7.466;2022-10-16T15:55:17;19.20;97.20
49549;DHT22;35450;44.518;7.466;2022-10-16T15:58:22;19.10;97.20
49549;DHT22;35450;44.518;7.466;2022-10-16T16:01:27;19.10;97.40
49549;DHT22;35450;44.518;7.466;2022-10-16T16:04:33;19.00;97.70
49549;DHT22;35450;44.518;7.466;2022-10-16T16:07:38;19.00;98.00
49549;DHT22;35450;44.518;7.466;2022-10-16T16:10:43;19.00;98.00
49549;DHT22;35450;44.518;7.466;2022-10-16T16:13:47;19.00;98.00
49549;DHT22;35450;44.518;7.466;2022-10-16T16:16:51;19.10;98.40
49549;DHT22;35450;44.518;7.466;2022-10-16T16:19:55;19.00;98.20
49549;DHT22;35450;44.518;7.466;2022-10-16T16:22:59;19.00;98.20
49549;DHT22;35450;44.518;7.466;2022-10-16T16:26:15;19.00;98.30
49549;DHT22;35450;44.518;7.466;2022-10-16T16:29:19;19.00;98.40
49549;DHT22;35450;44.518;7.466;2022-10-16T16:32:23;19.00;98.70
49549;DHT22;35450;44.518;7.466;2022-10-16T16:35:26;19.00;98.90
49549;DHT22;35450;44.518;7.466;2022-10-16T16:38:32;19.00;98.90
49549;DHT22;35450;44.518;7.466;2022-10-16T16:41:36;18.90;98.60
49549;DHT22;35450;44.518;7.466;2022-10-16T16:44:40;18.80;98.90
49549;DHT22;35450;44.518;7.466;2022-10-16T16:47:44;18.80;98.90
49549;DHT22;35450;44.518;7.466;2022-10-16T16:50:48;18.70;98.90
49549;DHT22;35450;44.518;7.466;2022-10-16T16:53:53;18.70;98.80
49549;DHT22;35450;44.518;7.466;2022-10-16T16:56:57;18.70;98.80
49549;DHT22;35450;44.518;7.466;2022-10-16T17:00:02;18.60;98.80
49549;DHT22;35450;44.518;7.466;2022-10-16T17:03:06;18.70;98.80
49549;DHT22;35450;44.518;7.466;2022-10-16T17:06:11;18.60;98.70
49549;DHT22;35450;44.518;7.466;2022-10-16T17:09:15;18.60;98.50
49549;DHT22;35450;44.518;7.466;2022-10-16T17:12:20;18.50;98.60
49549;DHT22;35450;44.518;7.466;2022-10-16T17:15:24;18.50;98.70
49549;DHT22;35450;44.518;7.466;2022-10-16T17:18:27;18.50;98.80
49549;DHT22;35450;44.518;7.466;2022-10-16T17:21:32;18.60;98.70
49549;DHT22;35450;44.518;7.466;2022-10-16T17:24:36;18.50;98.70
49549;DHT22;35450;44.518;7.466;2022-10-16T17:27:40;18.50;98.60
49549;DHT22;35450;44.518;7.466;2022-10-16T17:30:44;18.50;98.70
49549;DHT22;35450;44.518;7.466;2022-10-16T17:33:48;18.40;98.80
49549;DHT22;35450;44.518;7.466;2022-10-16T17:36:51;18.40;98.80
49549;DHT22;35450;44.518;7.466;2022-10-16T17:39:56;18.40;98.80
49549;DHT22;35450;44.518;7.466;2022-10-16T17:43:00;18.40;98.80
49549;DHT22;35450;44.518;7.466;2022-10-16T17:46:06;18.40;98.80
49549;DHT22;35450;44.518;7.466;2022-10-16T17:49:10;18.50;98.80
49549;DHT22;35450;44.518;7.466;2022-10-16T17:52:14;18.40;98.70
49549;DHT22;35450;44.518;7.466;2022-10-16T17:55:18;18.50;98.70
49549;DHT22;35450;44.518;7.466;2022-10-16T17:58:23;18.50;98.90
49549;DHT22;35450;44.518;7.466;2022-10-16T18:01:35;18.50;98.70
49549;DHT22;35450;44.518;7.466;2022-10-16T18:04:40;18.50;98.70
49549;DHT22;35450;44.518;7.466;2022-10-16T18:07:44;18.50;98.60
49549;DHT22;35450;44.518;7.466;2022-10-16T18:10:49;18.40;98.60
49549;DHT22;35450;44.518;7.466;2022-10-16T18:13:54;18.50;98.70
49549;DHT22;35450;44.518;7.466;2022-10-16T18:16:59;18.50;98.70
49549;DHT22;35450;44.518;7.466;2022-10-16T18:20:05;18.50;98.80
49549;DHT22;35450;44.518;7.466;2022-10-16T18:23:09;18.40;98.60
49549;DHT22;35450;44.518;7.466;2022-10-16T18:26:15;18.40;98.60
49549;DHT22;35450;44.518;7.466;2022-10-16T18:29:19;18.50;98.60
49549;DHT22;35450;44.518;7.466;2022-10-16T18:32:23;18.40;98.50
49549;DHT22;35450;44.518;7.466;2022-10-16T18:35:27;18.40;98.50
49549;DHT22;35450;44.518;7.466;2022-10-16T18:38:31;18.50;98.40
49549;DHT22;35450;44.518;7.466;2022-10-16T18:41:41;18.50;98.50
49549;DHT22;35450;44.518;7.466;2022-10-16T18:44:47;18.40;98.50
49549;DHT22;35450;44.518;7.466;2022-10-16T18:47:51;18.40;98.80
49549;DHT22;35450;44.518;7.466;2022-10-16T18:54:14;18.30;98.90
49549;DHT22;35450;44.518;7.466;2022-10-16T18:57:19;18.30;98.90
49549;DHT22;35450;44.518;7.466;2022-10-16T19:00:23;18.30;99.20
49549;DHT22;35450;44.518;7.466;2022-10-16T19:03:27;18.40;99.20
49549;DHT22;35450;44.518;7.466;2022-10-16T19:06:37;18.30;99.30
49549;DHT22;35450;44.518;7.466;2022-10-16T19:09:41;18.20;99.40
49549;DHT22;35450;44.518;7.466;2022-10-16T19:12:44;18.10;99.90
49549;DHT22;35450;44.518;7.466;2022-10-16T19:15:49;18.10;99.90
49549;DHT22;35450;44.518;7.466;2022-10-16T19:18:55;17.90;99.90
49549;DHT22;35450;44.518;7.466;2022-10-16T19:21:59;18.00;99.90
49549;DHT22;35450;44.518;7.466;2022-10-16T19:25:19;18.10;99.90
49549;DHT22;35450;44.518;7.466;2022-10-16T19:28:26;18.10;99.90
49549;DHT22;35450;44.518;7.466;2022-10-16T19:31:30;18.10;99.70
49549;DHT22;35450;44.518;7.466;2022-10-16T19:34:34;18.10;99.60
49549;DHT22;35450;44.518;7.466;2022-10-16T19:37:38;18.10;99.60
49549;DHT22;35450;44.518;7.466;2022-10-16T19:40:42;18.10;99.80
49549;DHT22;35450;44.518;7.466;2022-10-16T19:43:46;18.10;99.80
49549;DHT22;35450;44.518;7.466;2022-10-16T19:46:50;18.10;99.90
49549;DHT22;35450;44.518;7.466;2022-10-16T19:49:54;18.10;99.90
49549;DHT22;35450;44.518;7.466;2022-10-16T19:52:58;18.00;99.70
49549;DHT22;35450;44.518;7.466;2022-10-16T19:56:14;18.10;99.50
49549;DHT22;35450;44.518;7.466;2022-10-16T19:59:18;18.10;99.50
49549;DHT22;35450;44.518;7.466;2022-10-16T20:02:23;18.10;99.40
49549;DHT22;35450;44.518;7.466;2022-10-16T20:05:27;18.10;99.40
49549;DHT22;35450;44.518;7.466;2022-10-16T20:08:32;18.10;99.40
49549;DHT22;35450;44.518;7.466;2022-10-16T20:11:37;18.00;99.50
49549;DHT22;35450;44.518;7.466;2022-10-16T20:14:41;18.00;99.50
49549;DHT22;35450;44.518;7.466;2022-10-16T20:17:45;18.10;99.60
49549;DHT22;35450;44.518;7.466;2022-10-16T20:20:49;18.10;99.50
49549;DHT22;35450;44.518;7.466;2022-10-16T20:23:55;18.10;99.50
49549;DHT22;35450;44.518;7.466;2022-10-16T20:26:59;18.00;99.80
49549;DHT22;35450;44.518;7.466;2022-10-16T20:30:04;18.10;99.70
49549;DHT22;35450;44.518;7.466;2022-10-16T20:33:09;18.10;99.70
49549;DHT22;35450;44.518;7.466;2022-10-16T20:36:13;18.10;99.70
49549;DHT22;35450;44.518;7.466;2022-10-16T20:39:18;18.00;99.50
49549;DHT22;35450;44.518;7.466;2022-10-16T20:42:22;18.00;99.50
49549;DHT22;35450;44.518;7.466;2022-10-16T20:45:26;17.90;99.60
49549;DHT22;35450;44.518;7.466;2022-10-16T20:48:30;18.00;99.60
49549;DHT22;35450;44.518;7.466;2022-10-16T20:51:34;18.00;99.60
49549;DHT22;35450;44.518;7.466;2022-10-16T20:54:38;18.00;99.50
49549;DHT22;35450;44.518;7.466;2022-10-16T20:57:42;18.10;99.40
49549;DHT22;35450;44.518;7.466;2022-10-16T21:00:46;18.10;99.20
49549;DHT22;35450;44.518;7.466;2022-10-16T21:03:54;18.10;99.20
49549;DHT22;35450;44.518;7.466;2022-10-16T21:06:58;18.10;99.10
49549;DHT22;35450;44.518;7.466;2022-10-16T21:10:03;18.10;99.10
49549;DHT22;35450;44.518;7.466;2022-10-16T21:13:07;18.10;99.00
49549;DHT22;35450;44.518;7.466;2022-10-16T21:16:12;18.10;98.70
49549;DHT22;35450;44.518;7.466;2022-10-16T21:19:16;18.10;98.90
49549;DHT22;35450;44.518;7.466;2022-10-16T21:22:21;18.10;99.40
49549;DHT22;35450;44.518;7.466;2022-10-16T21:25:25;18.10;99.10
49549;DHT22;35450;44.518;7.466;2022-10-16T21:28:30;18.10;99.00
49549;DHT22;35450;44.518;7.466;2022-10-16T21:31:35;18.10;99.00
49549;DHT22;35450;44.518;7.466;2022-10-16T21:34:38;18.00;99.30
49549;DHT22;35450;44.518;7.466;2022-10-16T21:37:48;17.90;99.70